createdAt,value
2018-12-29T00:01:11.405Z,16.10
2018-12-29T00:03:41.828Z,16.75
2018-12-29T00:06:11.713Z,16.90
2018-12-29T00:08:41.421Z,16.00
2018-12-29T00:11:11.114Z,16.07
2018-12-29T00:13:40.805Z,14.33
2018-12-29T00:16:10.501Z,15.95
2018-12-29T00:18:40.268Z,14.80
2018-12-29T00:21:09.982Z,15.60
2018-12-29T00:23:39.684Z,16.82
2018-12-29T00:26:09.373Z,16.10
2018-12-29T00:28:39.085Z,16.90
2018-12-29T00:31:08.793Z,18.52
2018-12-29T00:33:38.497Z,17.62
2018-12-29T00:36:09.738Z,16.27
2018-12-29T00:38:39.426Z,14.40
2018-12-29T00:41:09.153Z,16.10
2018-12-29T00:43:38.873Z,14.13
2018-12-29T00:46:08.615Z,14.95
2018-12-29T00:48:38.321Z,15.88
2018-12-29T00:51:08.030Z,14.00
2018-12-29T00:53:38.639Z,13.78
2018-12-29T00:56:08.358Z,14.13
2018-12-29T00:58:38.210Z,14.33
2018-12-29T01:01:08.090Z,15.68
2018-12-29T01:03:37.758Z,14.80
2018-12-29T01:06:07.546Z,17.75
2018-12-29T01:08:42.678Z,14.58
2018-12-29T01:11:12.461Z,17.48
2018-12-29T01:13:42.163Z,14.98
2018-12-29T01:16:12.806Z,15.78
2018-12-29T01:18:42.534Z,17.00
2018-12-29T01:21:12.218Z,16.12
2018-12-29T01:23:44.229Z,16.42
2018-12-29T01:26:13.942Z,15.65
2018-12-29T01:28:43.826Z,16.73
2018-12-29T01:31:13.517Z,15.75
2018-12-29T01:33:43.258Z,16.90
2018-12-29T01:36:13.958Z,13.95
2018-12-29T01:38:43.670Z,17.45
2018-12-29T01:41:14.306Z,16.75
2018-12-29T01:43:44.926Z,16.62
2018-12-29T01:46:14.634Z,17.98
2018-12-29T01:48:44.350Z,18.00
2018-12-29T01:51:14.058Z,17.45
2018-12-29T01:53:47.102Z,17.95
2018-12-29T01:56:17.068Z,15.90
2018-12-29T01:58:48.814Z,19.27
2018-12-29T02:01:18.543Z,15.70
2018-12-29T02:03:49.223Z,19.05
2018-12-29T02:06:18.934Z,20.05
2018-12-29T02:08:49.643Z,19.23
2018-12-29T02:19:17.207Z,19.57
2018-12-29T02:21:47.878Z,17.00
2018-12-29T02:24:17.619Z,17.90
2018-12-29T02:26:47.323Z,19.15
2018-12-29T02:29:18.884Z,18.65
2018-12-29T02:31:48.733Z,19.95
2018-12-29T02:34:18.522Z,16.20
2018-12-29T02:36:50.690Z,19.40
2018-12-29T02:39:20.539Z,17.92
2018-12-29T02:41:50.238Z,19.20
2018-12-29T02:44:19.944Z,16.73
2018-12-29T02:46:50.568Z,17.00
2018-12-29T02:49:20.275Z,16.40
2018-12-29T02:51:50.252Z,17.42
2018-12-29T02:54:19.978Z,18.07
2018-12-29T02:56:50.638Z,19.07
2018-12-29T02:59:22.334Z,20.00
2018-12-29T03:01:52.037Z,19.80
2018-12-29T03:04:21.730Z,18.80
2018-12-29T03:06:51.434Z,20.85
2018-12-29T03:09:22.030Z,16.48
2018-12-29T03:11:51.810Z,17.50
2018-12-29T03:14:21.506Z,16.30
2018-12-29T03:16:51.226Z,17.50
2018-12-29T03:19:20.926Z,16.85
2018-12-29T03:21:50.697Z,16.23
2018-12-29T03:24:21.326Z,18.20
2018-12-29T03:26:51.084Z,16.52
2018-12-29T03:29:20.751Z,16.93
2018-12-29T03:31:50.452Z,16.70
2018-12-29T03:34:20.171Z,16.17
2018-12-29T03:36:49.887Z,13.83
2018-12-29T03:39:19.604Z,13.30
2018-12-29T03:41:49.283Z,16.93
2018-12-29T03:44:18.974Z,15.63
2018-12-29T03:46:50.656Z,12.75
2018-12-29T03:49:20.358Z,16.37
2018-12-29T03:51:50.068Z,16.32
2018-12-29T03:54:21.715Z,15.72
2018-12-29T03:56:51.403Z,15.88
2018-12-29T03:59:21.106Z,15.20
2018-12-29T04:01:52.780Z,14.80
2018-12-29T04:04:22.467Z,16.10
2018-12-29T04:06:52.181Z,14.98
2018-12-29T04:09:33.000Z,16.00
2018-12-29T04:12:07.839Z,13.85
2018-12-29T04:14:39.675Z,14.70
2018-12-29T04:17:09.372Z,15.25
2018-12-29T04:19:39.063Z,16.73
2018-12-29T04:22:09.027Z,15.48
2018-12-29T04:24:39.861Z,17.50
2018-12-29T04:27:09.555Z,15.68
2018-12-29T04:29:39.259Z,14.40
2018-12-29T04:32:09.922Z,14.23
2018-12-29T04:34:40.616Z,17.82
2018-12-29T04:37:10.315Z,15.63
2018-12-29T04:39:40.531Z,19.15
2018-12-29T04:42:10.240Z,15.68
2018-12-29T04:44:39.959Z,16.45
2018-12-29T04:47:09.655Z,18.37
2018-12-29T04:49:39.352Z,17.25
2018-12-29T04:52:09.329Z,17.52
2018-12-29T04:54:39.168Z,18.40
2018-12-29T04:57:15.799Z,17.07
2018-12-29T04:59:45.491Z,19.25
2018-12-29T05:02:16.135Z,15.93
2018-12-29T05:04:47.020Z,19.50
2018-12-29T05:07:36.594Z,19.40
2018-12-29T05:10:08.423Z,15.60
2018-12-29T05:12:38.579Z,15.35
2018-12-29T05:15:08.509Z,15.50
2018-12-29T05:17:40.195Z,17.07
2018-12-29T05:20:09.887Z,17.20
2018-12-29T05:22:39.595Z,17.25
2018-12-29T05:25:09.312Z,15.13
2018-12-29T05:27:39.028Z,15.00
2018-12-29T05:30:08.967Z,14.98
2018-12-29T05:32:39.348Z,15.30
2018-12-29T05:35:09.051Z,15.25
2018-12-29T05:37:39.711Z,15.75
2018-12-29T05:40:09.405Z,16.73
2018-12-29T05:42:40.267Z,15.45
2018-12-29T05:45:09.979Z,16.37
2018-12-29T05:47:40.611Z,14.73
2018-12-29T05:50:11.320Z,16.65
2018-12-29T05:52:41.019Z,15.85
2018-12-29T05:55:10.748Z,15.00
2018-12-29T05:57:41.360Z,15.43
2018-12-29T06:00:11.280Z,14.68
2018-12-29T06:02:41.015Z,12.50
2018-12-29T06:05:10.716Z,13.40
2018-12-29T06:07:40.408Z,12.65
2018-12-29T06:10:10.360Z,14.83
2018-12-29T06:12:56.815Z,13.58
2018-12-29T06:15:26.523Z,15.53
2018-12-29T06:17:58.199Z,14.78
2018-12-29T06:20:28.851Z,16.35
2018-12-29T06:22:58.580Z,13.90
2018-12-29T06:25:28.280Z,15.78
2018-12-29T06:27:59.648Z,14.23
2018-12-29T06:30:29.351Z,14.47
2018-12-29T06:32:59.055Z,14.70
2018-12-29T06:35:28.752Z,14.38
2018-12-29T06:38:00.398Z,13.83
2018-12-29T06:40:30.091Z,13.53
2018-12-29T06:42:59.799Z,15.75
2018-12-29T06:45:29.515Z,16.97
2018-12-29T06:47:59.232Z,14.65
2018-12-29T06:50:28.933Z,16.23
2018-12-29T06:52:58.644Z,14.98
2018-12-29T06:55:45.375Z,17.82
2018-12-29T06:58:15.257Z,14.60
2018-12-29T07:00:44.952Z,16.45
2018-12-29T07:03:14.651Z,17.20
2018-12-29T07:05:45.292Z,15.93
2018-12-29T07:08:15.000Z,14.68
2018-12-29T07:10:44.807Z,15.60
2018-12-29T07:13:14.513Z,17.25
2018-12-29T07:15:45.139Z,16.87
2018-12-29T07:18:14.832Z,16.87
2018-12-29T07:20:44.543Z,18.55
2018-12-29T07:23:14.315Z,19.00
2018-12-29T07:25:44.024Z,17.70
2018-12-29T07:28:13.789Z,18.12
2018-12-29T07:30:44.423Z,17.37
2018-12-29T07:33:14.140Z,17.98
2018-12-29T07:35:43.873Z,15.30
2018-12-29T07:38:13.559Z,18.77
2018-12-29T07:40:43.259Z,14.83
2018-12-29T07:43:12.955Z,15.83
2018-12-29T07:45:42.699Z,14.95
2018-12-29T07:48:13.377Z,16.82
2018-12-29T07:50:43.209Z,16.87
2018-12-29T07:53:12.905Z,16.48
2018-12-29T07:55:43.313Z,18.92
2018-12-29T07:58:13.035Z,20.08
2018-12-29T08:00:42.739Z,18.00
2018-12-29T08:03:12.443Z,17.98
2018-12-29T08:05:43.044Z,19.57
2018-12-29T08:08:12.723Z,20.15
2018-12-29T08:10:42.443Z,20.08
2018-12-29T08:13:12.159Z,18.17
2018-12-29T08:15:41.855Z,18.27
2018-12-29T08:18:11.545Z,17.35
2018-12-29T08:20:41.232Z,15.72
2018-12-29T08:23:10.947Z,18.80
2018-12-29T08:25:40.651Z,19.77
2018-12-29T08:28:10.344Z,17.70
2018-12-29T08:33:16.106Z,20.35
2018-12-29T08:35:46.803Z,18.35
2018-12-29T08:38:17.427Z,19.70
2018-12-29T08:40:47.123Z,17.07
2018-12-29T08:43:16.811Z,18.75
2018-12-29T08:45:46.499Z,18.35
2018-12-29T08:48:16.211Z,19.48
2018-12-29T08:50:45.911Z,16.73
2018-12-29T08:53:16.582Z,19.02
2018-12-29T08:55:46.312Z,17.80
2018-12-29T08:58:16.071Z,18.37
2018-12-29T09:00:45.883Z,18.27
2018-12-29T09:03:15.643Z,17.70
2018-12-29T09:05:45.307Z,19.92
2018-12-29T09:08:15.094Z,21.20
2018-12-29T09:10:44.803Z,20.32
2018-12-29T09:13:14.501Z,17.92
2018-12-29T09:15:44.203Z,17.90
2018-12-29T09:18:14.223Z,19.30
2018-12-29T09:20:43.915Z,18.57
2018-12-29T09:23:13.667Z,18.85
2018-12-29T09:25:45.439Z,21.15
2018-12-29T09:28:15.167Z,21.87
2018-12-29T09:30:45.723Z,21.50
2018-12-29T09:33:16.895Z,18.98
2018-12-29T09:35:46.735Z,21.07
2018-12-29T09:38:17.415Z,17.67
2018-12-29T09:40:47.109Z,18.23
2018-12-29T09:43:16.791Z,21.90
2018-12-29T09:45:47.459Z,22.00
2018-12-29T09:48:17.391Z,18.30
2018-12-29T09:50:47.099Z,19.05
2018-12-29T09:53:16.779Z,17.90
2018-12-29T09:55:46.540Z,21.87
2018-12-29T09:58:16.235Z,17.27
2018-12-29T10:00:45.927Z,17.15
2018-12-29T10:03:15.755Z,18.40
2018-12-29T10:05:45.479Z,18.80
2018-12-29T10:08:15.247Z,17.55
2018-12-29T10:10:45.805Z,18.70
2018-12-29T10:13:15.487Z,16.90
2018-12-29T10:15:45.199Z,17.52
2018-12-29T10:18:14.895Z,18.32
2018-12-29T10:20:44.661Z,17.75
2018-12-29T10:23:15.415Z,19.75
2018-12-29T10:25:45.099Z,18.57
2018-12-29T10:28:14.803Z,19.57
2018-12-29T10:30:44.632Z,20.95
2018-12-29T10:33:14.315Z,19.95
2018-12-29T10:35:44.164Z,19.15
2018-12-29T10:38:13.903Z,18.75
2018-12-29T10:40:44.775Z,20.77
2018-12-29T10:43:14.571Z,18.00
2018-12-29T10:45:44.363Z,17.60
2018-12-29T10:48:14.135Z,18.40
2018-12-29T10:50:43.810Z,17.77
2018-12-29T10:53:13.647Z,18.62
2018-12-29T10:55:43.331Z,18.85
2018-12-29T10:58:13.023Z,20.57
2018-12-29T11:00:42.707Z,16.12
2018-12-29T11:03:12.411Z,18.65
2018-12-29T11:05:43.007Z,18.35
2018-12-29T11:08:12.707Z,16.60
2018-12-29T11:10:43.319Z,17.80
2018-12-29T11:13:13.091Z,16.95
2018-12-29T11:15:43.286Z,15.70
2018-12-29T11:18:12.967Z,16.87
2018-12-29T11:20:42.651Z,18.50
2018-12-29T11:23:12.346Z,15.40
2018-12-29T11:25:42.029Z,15.65
2018-12-29T11:28:11.711Z,15.88
2018-12-29T11:30:41.439Z,16.30
2018-12-29T11:33:11.131Z,15.40
2018-12-29T11:35:40.819Z,17.07
2018-12-29T11:38:10.828Z,15.75
2018-12-29T11:40:40.583Z,15.75
2018-12-29T11:43:10.295Z,16.52
2018-12-29T11:45:39.995Z,15.68
2018-12-29T11:48:10.596Z,17.32
2018-12-29T11:50:40.580Z,16.05
2018-12-29T11:53:11.667Z,15.88
2018-12-29T11:55:41.761Z,14.60
2018-12-29T11:58:17.655Z,16.50
2018-12-29T12:00:47.751Z,16.48
2018-12-29T12:03:18.543Z,14.93
2018-12-29T12:05:48.536Z,15.68
2018-12-29T12:08:18.371Z,16.30
2018-12-29T12:10:48.352Z,17.30
2018-12-29T12:13:20.851Z,15.63
2018-12-29T12:15:51.515Z,16.23
2018-12-29T12:18:21.308Z,16.40
2018-12-29T12:20:51.182Z,16.75
2018-12-29T12:23:21.755Z,16.10
2018-12-29T12:25:53.273Z,16.97
2018-12-29T12:28:23.487Z,16.07
2018-12-29T12:30:53.589Z,15.98
2018-12-29T12:33:24.033Z,17.52
2018-12-29T12:35:53.859Z,15.78
2018-12-29T12:38:23.563Z,16.57
2018-12-29T12:40:56.523Z,17.00
2018-12-29T12:43:26.870Z,18.20
2018-12-29T12:45:58.987Z,17.27
2018-12-29T12:48:32.056Z,16.80
2018-12-29T12:51:02.639Z,16.30
2018-12-29T12:53:32.483Z,17.50
2018-12-29T12:56:02.230Z,16.07
2018-12-29T12:58:31.964Z,17.40
2018-12-29T13:01:02.288Z,17.20
2018-12-29T13:03:33.790Z,15.25
2018-12-29T13:06:09.887Z,15.72
2018-12-29T13:08:41.827Z,14.98
2018-12-29T13:11:11.695Z,16.90
2018-12-29T13:13:41.880Z,17.25
2018-12-29T13:16:12.034Z,16.20
2018-12-29T13:18:42.323Z,15.75
2018-12-29T13:21:12.568Z,17.25
2018-12-29T13:23:42.495Z,16.75
2018-12-29T13:26:13.139Z,16.27
2018-12-29T13:28:43.167Z,17.50
2018-12-29T13:31:13.400Z,16.67
2018-12-29T13:33:43.825Z,16.70
2018-12-29T13:36:14.120Z,16.52
2018-12-29T13:38:44.293Z,17.27
2018-12-29T13:41:14.379Z,15.95
2018-12-29T13:43:44.274Z,18.20
2018-12-29T13:46:14.250Z,16.27
2018-12-29T13:48:44.294Z,18.62
2018-12-29T13:51:14.415Z,16.15
2018-12-29T13:53:44.367Z,18.32
2018-12-29T13:56:14.144Z,17.50
2018-12-29T13:58:45.555Z,17.12
2018-12-29T14:01:15.450Z,15.83
2018-12-29T14:03:45.228Z,16.35
2018-12-29T14:06:15.168Z,16.82
2018-12-29T14:08:45.923Z,16.02
2018-12-29T14:11:16.814Z,17.73
2018-12-29T14:13:46.941Z,16.12
2018-12-29T14:16:16.771Z,15.60
2018-12-29T14:18:47.138Z,16.97
2018-12-29T14:21:17.573Z,18.00
2018-12-29T14:23:50.014Z,17.77
2018-12-29T14:26:22.946Z,16.50
2018-12-29T14:28:53.150Z,17.27
2018-12-29T14:31:25.994Z,18.92
2018-12-29T14:33:56.060Z,16.93
2018-12-29T14:36:25.966Z,18.87
2018-12-29T14:38:55.670Z,20.02
2018-12-29T14:41:25.899Z,17.00
2018-12-29T14:43:55.911Z,17.32
2018-12-29T14:46:26.858Z,16.65
2018-12-29T14:48:56.865Z,16.07
2018-12-29T14:51:27.176Z,15.18
2018-12-29T14:53:57.280Z,16.97
2018-12-29T14:56:30.342Z,17.85
2018-12-29T14:59:01.122Z,15.48
2018-12-29T15:01:31.755Z,16.87
2018-12-29T15:04:01.847Z,17.62
2018-12-29T15:06:34.139Z,15.70
2018-12-29T15:09:05.447Z,14.35
2018-12-29T15:11:35.315Z,16.17
2018-12-29T15:14:05.156Z,15.88
2018-12-29T15:16:35.565Z,17.60
2018-12-29T15:19:06.303Z,15.78
2018-12-29T15:21:36.827Z,14.70
2018-12-29T15:24:06.663Z,16.20
2018-12-29T15:26:36.897Z,14.93
2018-12-29T15:29:07.107Z,15.98
2018-12-29T15:31:37.059Z,16.23
2018-12-29T15:34:10.065Z,16.27
2018-12-29T15:36:46.911Z,16.05
2018-12-29T15:39:16.611Z,17.35
2018-12-29T15:41:46.371Z,15.72
2018-12-29T15:44:16.116Z,15.75
2018-12-29T15:46:46.115Z,17.20
2018-12-29T15:49:16.047Z,15.58
2018-12-29T15:51:46.048Z,14.75
2018-12-29T15:54:15.863Z,15.70
2018-12-29T15:56:46.139Z,14.63
2018-12-29T15:59:15.962Z,16.00
2018-12-29T16:01:45.923Z,16.23
2018-12-29T16:04:15.670Z,14.73
2018-12-29T16:06:51.407Z,16.20
2018-12-29T16:09:21.180Z,16.30
2018-12-29T16:11:54.267Z,15.85
2018-12-29T16:14:23.967Z,17.10
2018-12-29T16:17:02.202Z,15.85
2018-12-29T16:19:32.362Z,14.70
2018-12-29T16:22:02.520Z,17.00
2018-12-29T16:24:32.353Z,14.23
2018-12-29T16:27:02.148Z,16.67
2018-12-29T16:29:32.171Z,15.05
2018-12-29T16:32:08.955Z,16.75
2018-12-29T16:34:39.993Z,14.93
2018-12-29T16:37:15.595Z,15.30
2018-12-29T16:39:45.459Z,14.43
2018-12-29T16:42:15.151Z,15.25
2018-12-29T16:44:46.857Z,15.45
2018-12-29T16:47:19.139Z,16.25
2018-12-29T16:49:49.164Z,17.12
2018-12-29T16:52:26.483Z,16.70
2018-12-29T16:54:56.504Z,14.50
2018-12-29T16:57:26.649Z,17.00
2018-12-29T16:59:56.594Z,16.60
2018-12-29T17:02:26.339Z,16.90
2018-12-29T17:05:03.117Z,15.35
2018-12-29T17:07:41.767Z,17.35
2018-12-29T17:10:13.619Z,17.90
2018-12-29T17:12:54.397Z,24.23
2018-12-29T17:15:24.463Z,19.48
2018-12-29T17:18:00.149Z,17.12
2018-12-29T17:20:31.063Z,20.00
2018-12-29T17:23:01.032Z,25.25
2018-12-29T17:25:31.172Z,21.85
2018-12-29T17:28:00.904Z,16.57
2018-12-29T17:30:31.535Z,17.62
2018-12-29T17:33:01.613Z,14.20
2018-12-29T17:35:31.707Z,16.97
2018-12-29T17:38:01.483Z,18.10
2018-12-29T17:40:31.518Z,15.98
2018-12-29T17:43:01.425Z,16.25
2018-12-29T17:45:33.243Z,16.67
2018-12-29T17:48:05.987Z,15.95
2018-12-29T17:50:37.136Z,15.68
2018-12-29T17:53:07.150Z,17.02
2018-12-29T17:55:37.236Z,14.95
2018-12-29T17:58:07.453Z,19.60
2018-12-29T18:00:37.547Z,16.45
2018-12-29T18:03:13.696Z,17.12
2018-12-29T18:05:48.172Z,17.90
2018-12-29T18:08:25.717Z,14.45
2018-12-29T18:10:57.758Z,18.25
2018-12-29T18:13:29.200Z,17.25
2018-12-29T18:16:05.174Z,15.95
2018-12-29T18:18:35.338Z,16.20
2018-12-29T18:21:14.564Z,17.32
2018-12-29T18:23:46.620Z,17.37
2018-12-29T18:26:18.580Z,17.07
2018-12-29T18:28:49.687Z,16.15
2018-12-29T18:31:26.451Z,16.57
2018-12-29T18:33:57.301Z,18.07
2018-12-29T18:36:27.545Z,18.23
2018-12-29T18:38:57.651Z,18.27
2018-12-29T18:41:27.915Z,15.95
2018-12-29T18:43:59.015Z,16.12
2018-12-29T18:46:29.419Z,17.82
2018-12-29T18:48:59.259Z,17.07
2018-12-29T18:51:31.189Z,19.65
2018-12-29T18:54:03.169Z,17.87
2018-12-29T18:56:35.492Z,19.15
2018-12-29T18:59:05.641Z,17.32
2018-12-29T19:01:36.439Z,16.85
2018-12-29T19:04:06.163Z,17.70
2018-12-29T19:06:45.072Z,17.42
2018-12-29T19:09:14.986Z,16.25
2018-12-29T19:11:44.666Z,17.37
2018-12-29T19:14:15.746Z,17.45
2018-12-29T19:16:46.711Z,20.95
2018-12-29T19:19:17.431Z,19.00
2018-12-29T19:21:49.279Z,20.08
2018-12-29T19:24:23.007Z,18.40
2018-12-29T19:26:53.119Z,20.12
2018-12-29T19:29:23.208Z,18.20
2018-12-29T19:31:54.038Z,21.00
2018-12-29T19:34:25.329Z,19.55
2018-12-29T19:37:14.498Z,18.60
2018-12-29T19:39:44.517Z,20.25
2018-12-29T19:42:14.384Z,18.02
2018-12-29T19:44:44.340Z,18.20
2018-12-29T19:47:14.438Z,16.70
2018-12-29T19:49:53.806Z,17.17
2018-12-29T19:52:25.018Z,16.55
2018-12-29T19:54:54.995Z,17.60
2018-12-29T19:57:25.098Z,15.65
2018-12-29T19:59:58.947Z,16.73
2018-12-29T20:02:28.975Z,15.85
2018-12-29T20:04:58.867Z,16.52
2018-12-29T20:07:30.327Z,15.85
2018-12-29T20:10:00.894Z,15.28
2018-12-29T20:12:30.594Z,15.65
2018-12-29T20:15:01.287Z,15.23
2018-12-29T20:17:35.027Z,14.23
2018-12-29T20:20:06.551Z,17.25
2018-12-29T20:22:37.544Z,16.32
2018-12-29T20:25:08.562Z,15.80
2018-12-29T20:27:39.595Z,17.82
2018-12-29T20:30:17.865Z,13.88
2018-12-29T20:32:58.747Z,15.35
2018-12-29T20:35:22.950Z,16.30
2018-12-29T20:37:57.524Z,16.12
2018-12-29T20:40:27.350Z,12.68
2018-12-29T20:42:57.097Z,13.18
2018-12-29T20:45:26.895Z,14.13
2018-12-29T20:47:57.856Z,14.13
2018-12-29T20:50:38.486Z,15.32
2018-12-29T20:53:09.360Z,14.33
2018-12-29T20:55:39.250Z,14.73
2018-12-29T20:58:09.273Z,14.60
2018-12-29T21:00:41.407Z,12.82
2018-12-29T21:03:11.222Z,12.65
2018-12-29T21:05:41.871Z,14.83
2018-12-29T21:08:13.519Z,14.38
2018-12-29T21:10:43.230Z,13.90
2018-12-29T21:13:15.010Z,13.43
2018-12-29T21:15:45.812Z,11.68
2018-12-29T21:18:16.583Z,12.20
2018-12-29T21:20:47.542Z,14.45
2018-12-29T21:23:17.676Z,15.20
2018-12-29T21:25:47.793Z,12.60
2018-12-29T21:28:17.882Z,13.53
2018-12-29T21:30:48.924Z,11.90
2018-12-29T21:33:18.902Z,12.50
2018-12-29T21:35:48.842Z,12.60
2018-12-29T21:38:21.602Z,11.50
2018-12-29T21:40:51.359Z,8.95
2018-12-29T21:43:23.403Z,10.25
2018-12-29T21:45:53.231Z,12.88
2018-12-29T21:48:25.136Z,9.68
2018-12-29T21:50:54.805Z,9.63
2018-12-29T21:53:24.835Z,10.53
2018-12-29T21:55:54.679Z,9.90
2018-12-29T21:58:24.403Z,9.25
2018-12-29T22:00:54.757Z,9.93
2018-12-29T22:03:24.675Z,9.78
2018-12-29T22:05:56.653Z,6.72
2018-12-29T22:08:26.491Z,7.40
2018-12-29T22:10:56.479Z,7.65
2018-12-29T22:13:28.237Z,7.60
2018-12-29T22:15:58.391Z,6.85
2018-12-29T22:18:32.651Z,5.60
2018-12-29T22:21:04.703Z,5.97
2018-12-29T22:23:34.976Z,7.22
2018-12-29T22:26:04.739Z,6.40
2018-12-29T22:28:34.822Z,5.78
2018-12-29T22:31:04.941Z,7.00
2018-12-29T22:33:40.921Z,5.25
2018-12-29T22:36:10.796Z,5.85
2018-12-29T22:38:41.407Z,5.92
2018-12-29T22:41:11.570Z,5.40
2018-12-29T22:43:41.523Z,6.83
2018-12-29T22:46:11.335Z,5.53
2018-12-29T22:48:42.346Z,5.60
2018-12-29T22:51:14.204Z,5.55
2018-12-29T22:53:43.967Z,5.75
2018-12-29T22:56:13.720Z,5.40
2018-12-29T22:58:43.703Z,6.12
2018-12-29T23:01:15.428Z,5.97
2018-12-29T23:03:47.472Z,6.17
2018-12-29T23:06:23.268Z,5.05
2018-12-29T23:08:53.111Z,6.10
2018-12-29T23:11:24.060Z,6.62
2018-12-29T23:13:55.070Z,5.08
2018-12-29T23:16:26.051Z,7.75
2018-12-29T23:18:56.623Z,5.05
2018-12-29T23:21:26.463Z,9.30
2018-12-29T23:23:57.211Z,5.87
2018-12-29T23:26:28.251Z,13.05
2018-12-29T23:29:02.404Z,5.85
2018-12-29T23:31:45.470Z,4.85
2018-12-29T23:34:21.462Z,8.30
2018-12-29T23:36:57.506Z,6.33
2018-12-29T23:39:27.737Z,7.50
2018-12-29T23:41:58.284Z,5.65
2018-12-29T23:44:30.369Z,7.22
2018-12-29T23:47:00.729Z,6.30
2018-12-29T23:49:35.547Z,6.17
2018-12-29T23:52:11.102Z,6.12
2018-12-29T23:54:43.644Z,6.33
2018-12-29T23:57:14.496Z,8.23
2018-12-29T23:59:53.821Z,5.45
